Chiang Mai International Airport
VTCC : now visible

Airfield :











YOU CAN JOIN US ON...

 
LOGIN :

Register | Disclaimer

   EN    FR    IT 

 









Legend :    VFR   Marginal VFR   IFR   Intensive IFR   Very Intensive IFR
Visi :
Ceiling :
>= 8 km
>= 3000ft
5 to 8 km
1000 to 3000 ft
1500m to 5 km
500 to 1000 ft
800 to 1500m
200 to 500 ft
< 800m
< 200 ft
Symbols :   Thunderstorms  Fog  Heavy snow  Heavy precipitations  Wind > 20 kt






- Airport Elevation : 1036 ft
- IATA code : CNX


VTCC - Chiang Mai International

CURRENT METAR :
  • 271500Z VRB03KT 9999 SCT040 27/23 Q1007 NOSIG

EXPIRED METARs :
  • 271430Z 22004KT 180V260 9999 SCT040 28/24 Q1008 NOSIG
  • 271400Z 23004KT 190V280 9999 SCT040 28/23 Q1008 NOSIG
  • 271330Z 22003KT 200V260 9999 BKN040 28/24 Q1008 NOSIG
  • 271300Z 25003KT 230V290 9999 BKN040 28/24 Q1007 NOSIG
  • 271230Z VRB02KT 9999 BKN040 28/24 Q1007 NOSIG
  • 271200Z VRB02KT 9999 FEW020 BKN040 28/24 Q1007 NOSIG
  • 271130Z 22006KT 200V270 9999 FEW020 BKN040 28/23 Q1006 NOSIG
  • 271100Z 28006KT 240V310 9999 -RA FEW020 BKN035 28/23 Q1006 NOSIG
  • 271030Z 17003KT 100V270 9999 -RA FEW020 BKN035 30/24 Q1006 NOSIG

TAF TAF VTCC
Valid from the 27 at 12:00 until the 28 at 18:00 UTC


271100Z 2712/2818 25005KT 9999 SCT035
TEMPO 2712/2718 -TSRA FEW025CB BKN035
TEMPO 2721/2803 -TSRA FEW025CB BKN035
BECMG 2800/2802 18005KT
TEMPO 2807/2813 25015KT 4000 TSRA FEW025CB BKN035
BECMG 2811/2813 24005KT
VTBB FIR / Asia



MET'MAP, your aeronautical weather chart ! - Copyright ORBIFLY December 2007 - Disclaimer

ORBIFLY MET'MAP TEAM :

Programming & Development : Alexandra Zaïnal
Original concept : Baudouin d'Aumeries
Technical & hardware support : Manuel Goepfert
Assistance : Marc-Olivier Méhu




SOURCES & CREDITS :

   NOAA       Earth
Advisory